createdAt,value
2018-09-24T00:04:06.480Z,100474.51
2018-09-24T00:09:10.317Z,100499.28
2018-09-24T00:14:13.792Z,100503.69
2018-09-24T00:19:17.238Z,100520.86
2018-09-24T00:24:20.701Z,100525.76
2018-09-24T00:29:24.139Z,100539.60
2018-09-24T00:34:27.659Z,100554.22
2018-09-24T00:39:31.103Z,100567.22
2018-09-24T00:44:34.528Z,100576.66
2018-09-24T00:49:37.995Z,100588.94
2018-09-24T00:54:41.433Z,100602.78
2018-09-24T00:59:44.882Z,100612.72
2018-09-24T01:04:48.379Z,100623.15
2018-09-24T01:09:51.823Z,100631.88
2018-09-24T01:14:55.267Z,100643.02
2018-09-24T01:19:58.697Z,100656.02
2018-09-24T01:25:02.132Z,100660.42
2018-09-24T01:30:05.992Z,100673.91
2018-09-24T01:35:09.483Z,100681.42
2018-09-24T01:40:12.952Z,100686.68
2018-09-24T01:45:16.386Z,100686.81
2018-09-24T01:50:19.838Z,100706.16
2018-09-24T01:55:23.268Z,100708.26
2018-09-24T02:00:26.709Z,100715.60
2018-09-24T02:05:30.156Z,100715.88
2018-09-24T02:10:33.615Z,100726.30
2018-09-24T02:15:37.083Z,100732.33
2018-09-24T02:20:45.892Z,100739.34
2018-09-24T02:25:49.335Z,100750.37
2018-09-24T02:30:52.779Z,100768.03
2018-09-24T02:35:56.213Z,100776.27
2018-09-24T02:40:59.676Z,100775.33
2018-09-24T02:46:03.104Z,100791.38
2018-09-24T02:51:06.534Z,100797.79
2018-09-24T02:56:10.414Z,100807.06
2018-09-24T03:01:13.902Z,100820.58
2018-09-24T03:06:17.379Z,100828.17
2018-09-24T03:11:20.820Z,100839.21
2018-09-24T03:16:24.338Z,100844.46
2018-09-24T03:21:27.928Z,100843.50
2018-09-24T03:26:31.385Z,100856.35
2018-09-24T03:31:37.038Z,100868.73
2018-09-24T03:36:40.471Z,100873.66
2018-09-24T03:41:44.230Z,100884.16
2018-09-24T03:46:47.676Z,100887.60
2018-09-24T03:51:51.139Z,100892.98
2018-09-24T03:56:54.590Z,100894.95
2018-09-24T04:01:58.041Z,100899.48
2018-09-24T04:07:06.664Z,100901.91
2018-09-24T04:12:15.472Z,100895.30
2018-09-24T04:17:24.090Z,100910.98
2018-09-24T04:22:32.824Z,100924.83
2018-09-24T04:27:41.438Z,100942.95
2018-09-24T04:32:50.231Z,100939.77
2018-09-24T04:37:59.059Z,100943.93
2018-09-24T04:43:07.761Z,100945.28
2018-09-24T04:48:16.491Z,100955.78
2018-09-24T04:53:25.289Z,100955.05
2018-09-24T04:58:34.179Z,100969.86
2018-09-24T05:03:43.126Z,100966.33
2018-09-24T05:08:51.720Z,100974.91
2018-09-24T05:14:00.549Z,100969.18
2018-09-24T05:19:09.336Z,100987.67
2018-09-24T05:24:18.076Z,100996.39
2018-09-24T05:29:26.930Z,100999.07
2018-09-24T05:34:35.799Z,101008.28
2018-09-24T05:39:44.495Z,101017.47
2018-09-24T05:44:53.272Z,101021.38
2018-09-24T05:50:02.256Z,101024.19
2018-09-24T05:55:12.095Z,101031.57
2018-09-24T06:00:20.771Z,101038.80
2018-09-24T06:05:29.731Z,101055.21
2018-09-24T06:10:38.724Z,101068.56
2018-09-24T06:15:47.681Z,101068.44
2018-09-24T06:20:56.605Z,101083.21
2018-09-24T06:26:05.257Z,101095.58
2018-09-24T06:31:14.099Z,101093.25
2018-09-24T06:36:22.755Z,101130.28
2018-09-24T06:41:31.551Z,101122.25
2018-09-24T06:46:40.163Z,101121.14
2018-09-24T06:51:49.011Z,101135.70
2018-09-24T06:56:57.635Z,101142.73
2018-09-24T07:02:06.308Z,101151.64
2018-09-24T07:07:15.124Z,101165.52
2018-09-24T07:12:23.842Z,101168.58
2018-09-24T07:17:32.512Z,101179.52
2018-09-24T07:22:41.404Z,101184.80
2018-09-24T07:27:50.177Z,101197.04
2018-09-24T07:32:58.893Z,101213.58
2018-09-24T07:38:07.620Z,101228.39
2018-09-24T07:43:16.457Z,101230.68
2018-09-24T07:48:25.007Z,101233.98
2018-09-24T07:53:33.654Z,101241.08
2018-09-24T07:58:42.495Z,101258.88
2018-09-24T08:03:51.335Z,101269.95
2018-09-24T08:09:00.005Z,101275.59
2018-09-24T08:14:08.927Z,101268.18
2018-09-24T08:19:17.575Z,101269.47
2018-09-24T08:24:26.275Z,101290.07
2018-09-24T08:29:34.988Z,101304.93
2018-09-24T08:34:43.792Z,101296.20
2018-09-24T09:02:28.168Z,101325.77
2018-09-24T09:07:37.022Z,101334.71
2018-09-24T09:12:45.947Z,101336.62
2018-09-24T09:17:54.855Z,101342.84
2018-09-24T09:23:03.536Z,101363.16
2018-09-24T10:07:45.040Z,101366.98
2018-09-24T10:12:53.712Z,101389.25
2018-09-24T10:18:02.419Z,101398.98
2018-09-24T10:23:11.134Z,101408.09
2018-09-24T10:28:19.846Z,101402.22
2018-09-24T10:33:28.676Z,101403.98
2018-09-24T10:38:37.460Z,101424.63
2018-09-24T10:43:46.171Z,101422.12
2018-09-24T10:48:54.850Z,101424.55
2018-09-24T10:54:03.644Z,101420.74
2018-09-24T10:59:12.545Z,101419.50
2018-09-24T11:04:21.280Z,101419.06
2018-09-24T11:09:30.165Z,101426.37
2018-09-24T11:14:38.832Z,101423.24
2018-09-24T11:19:47.496Z,101433.64
2018-09-24T11:24:56.331Z,101431.62
2018-09-24T11:30:05.092Z,101451.89
2018-09-24T12:14:40.067Z,101462.70
2018-09-24T12:25:24.011Z,101462.18
2018-09-24T12:30:32.855Z,101456.56
2018-09-24T12:35:41.576Z,101453.27
2018-09-24T12:40:50.253Z,101457.42
2018-09-24T12:51:24.554Z,101450.72
2018-09-24T12:56:33.303Z,101462.92
2018-09-24T13:01:42.428Z,101457.25
2018-09-24T13:06:51.318Z,101461.50
2018-09-24T13:12:00.388Z,101467.34
2018-09-24T13:17:09.099Z,101463.56
2018-09-24T13:22:17.909Z,101465.23
2018-09-24T13:27:26.634Z,101474.75
2018-09-24T13:32:35.411Z,101490.09
2018-09-24T13:37:44.171Z,101505.11
2018-09-24T13:42:52.790Z,101515.89
2018-09-24T13:48:01.564Z,101522.63
2018-09-24T13:53:11.858Z,101528.13
2018-09-24T13:58:20.690Z,101529.74
2018-09-24T14:03:29.411Z,101531.95
2018-09-24T14:08:38.251Z,101539.29
2018-09-24T14:13:46.953Z,101537.19
2018-09-24T14:18:55.762Z,101533.64
2018-09-24T14:24:04.793Z,101535.47
2018-09-24T14:29:13.513Z,101529.22
2018-09-24T14:34:22.211Z,101526.23
2018-09-24T14:39:31.105Z,101542.69
2018-09-24T14:44:39.873Z,101524.99
2018-09-24T14:49:48.619Z,101555.30
2018-09-24T14:54:57.408Z,101558.69
2018-09-24T15:00:06.239Z,101548.25
2018-09-24T15:05:15.018Z,101545.47
2018-09-24T15:15:58.478Z,101551.95
2018-09-24T15:21:07.307Z,101548.91
2018-09-24T15:26:16.008Z,101571.73
2018-09-24T15:31:24.692Z,101564.07
2018-09-24T15:36:33.308Z,101573.95
2018-09-24T15:41:42.095Z,101565.92
2018-09-24T15:46:50.883Z,101563.21
2018-09-24T15:51:59.694Z,101563.11
2018-09-24T15:57:08.410Z,101557.05
2018-09-24T16:02:17.164Z,101558.77
2018-09-24T16:07:25.860Z,101553.52
2018-09-24T16:12:34.470Z,101561.02
2018-09-24T16:17:43.139Z,101561.55
2018-09-24T16:22:51.779Z,101560.84
2018-09-24T16:28:00.488Z,101575.48
2018-09-24T16:33:09.172Z,101587.37
2018-09-24T16:38:17.914Z,101584.16
2018-09-24T16:43:26.567Z,101581.73
2018-09-24T16:48:35.210Z,101582.69
2018-09-24T16:53:44.006Z,101583.14
2018-09-24T16:58:52.716Z,101580.59
2018-09-24T17:04:01.454Z,101588.83
2018-09-24T17:09:11.891Z,101587.86
2018-09-24T17:14:20.607Z,101600.35
2018-09-24T17:19:29.332Z,101605.04
2018-09-24T17:24:38.104Z,101606.69
2018-09-24T17:29:46.748Z,101609.77
2018-09-24T17:34:55.619Z,101620.22
2018-09-24T17:40:04.579Z,101616.66
2018-09-24T17:45:13.684Z,101631.77
2018-09-24T17:50:22.463Z,101639.28
2018-09-24T17:55:31.644Z,101645.39
2018-09-24T18:00:40.303Z,101662.70
2018-09-24T18:05:48.942Z,101674.40
2018-09-24T18:10:57.627Z,101684.23
2018-09-24T18:16:06.355Z,101689.68
2018-09-24T18:21:15.305Z,101689.50
2018-09-24T18:26:24.190Z,101695.84
2018-09-24T18:31:32.879Z,101702.55
2018-09-24T18:36:41.896Z,101708.13
2018-09-24T18:47:04.539Z,101714.38
2018-09-24T18:52:13.191Z,101715.77
2018-09-24T18:57:22.092Z,101725.28
2018-09-24T19:02:30.929Z,101730.18
2018-09-24T19:07:39.557Z,101731.91
2018-09-24T19:12:48.354Z,101737.08
2018-09-24T19:17:58.009Z,101745.16
2018-09-24T19:23:06.654Z,101747.84
2018-09-24T19:28:15.747Z,101757.16
2018-09-24T19:33:24.849Z,101771.77
2018-09-24T19:38:33.640Z,101772.75
2018-09-24T19:43:42.327Z,101777.27
2018-09-24T19:48:51.143Z,101796.78
2018-09-24T19:53:59.847Z,101791.12
2018-09-24T19:59:08.722Z,101792.77
2018-09-24T20:04:17.591Z,101805.25
2018-09-24T20:09:26.449Z,101808.91
2018-09-24T20:14:35.275Z,101808.60
2018-09-24T20:19:43.903Z,101821.20
2018-09-24T20:24:52.755Z,101821.69
2018-09-24T20:30:01.480Z,101832.26
2018-09-24T20:35:10.237Z,101827.84
2018-09-24T20:40:18.834Z,101837.75
2018-09-24T20:45:27.604Z,101847.45
2018-09-24T20:50:36.282Z,101850.36
2018-09-24T20:55:44.954Z,101855.55
2018-09-24T21:00:53.738Z,101857.75
2018-09-24T21:06:02.412Z,101867.08
2018-09-24T21:11:11.148Z,101866.11
2018-09-24T21:16:19.816Z,101879.52
2018-09-24T21:21:28.676Z,101889.39
2018-09-24T21:31:37.947Z,101899.83
2018-09-24T21:36:46.775Z,101905.50
2018-09-24T21:41:55.648Z,101914.37
2018-09-24T21:47:04.494Z,101917.06
2018-09-24T21:52:13.207Z,101920.14
2018-09-24T21:57:22.053Z,101920.63
2018-09-24T22:02:30.763Z,101941.19
2018-09-24T22:07:39.797Z,101936.10
2018-09-24T22:12:48.603Z,101943.98
2018-09-24T22:17:57.326Z,101950.44
2018-09-24T22:23:05.928Z,101959.00
2018-09-24T22:28:14.800Z,101960.83
2018-09-24T22:33:23.452Z,101974.02
2018-09-24T22:38:32.288Z,101973.34
2018-09-24T22:43:41.091Z,101978.73
2018-09-24T22:48:49.722Z,101979.69
2018-09-24T22:53:58.342Z,101981.91
2018-09-24T22:59:07.204Z,101986.42
2018-09-24T23:04:15.875Z,101989.98
2018-09-24T23:09:24.496Z,101998.93
2018-09-24T23:14:33.189Z,102006.05
2018-09-24T23:19:41.924Z,102003.84
2018-09-24T23:24:50.687Z,102002.02
2018-09-24T23:29:59.361Z,101998.73
2018-09-24T23:35:08.137Z,102011.44
2018-09-24T23:40:16.828Z,102022.02
2018-09-24T23:45:25.561Z,102021.83
2018-09-24T23:50:34.250Z,102027.22
2018-09-24T23:55:43.105Z,102023.95
